createdAt,value
2022-07-29T00:02:28.821Z,97845.78
2022-07-29T00:05:32.257Z,97841.78
2022-07-29T00:08:37.396Z,97830.09
2022-07-29T00:11:40.708Z,97829.66
2022-07-29T00:14:44.120Z,97827.47
2022-07-29T00:17:47.682Z,97830.72
2022-07-29T00:20:51.135Z,97830.41
2022-07-29T00:23:55.865Z,97816.28
2022-07-29T00:26:59.053Z,97817.00
2022-07-29T00:30:02.346Z,97812.31
2022-07-29T00:33:09.110Z,97815.09
2022-07-29T00:36:11.592Z,97806.25
2022-07-29T00:39:16.198Z,97805.38
2022-07-29T00:42:19.752Z,97760.53
2022-07-29T00:45:23.947Z,97807.81
2022-07-29T00:48:27.257Z,97804.25
2022-07-29T00:51:31.846Z,97805.63
2022-07-29T00:54:43.851Z,97801.72
2022-07-29T00:57:47.800Z,97801.44
2022-07-29T01:00:51.211Z,97798.78
2022-07-29T01:03:55.067Z,97808.94
2022-07-29T01:06:58.457Z,97812.41
2022-07-29T01:10:06.210Z,97806.47
2022-07-29T01:13:11.092Z,97813.28
2022-07-29T01:16:19.988Z,97824.53
2022-07-29T01:19:44.444Z,97815.09
2022-07-29T01:23:23.814Z,97804.41
2022-07-29T01:26:39.514Z,97814.16
2022-07-29T01:29:51.358Z,97806.13
2022-07-29T01:33:02.185Z,97803.50
2022-07-29T01:36:12.617Z,97807.66
2022-07-29T01:39:21.434Z,97807.66
2022-07-29T01:42:31.702Z,97801.41
2022-07-29T01:45:42.400Z,97797.66
2022-07-29T01:48:49.585Z,97781.72
2022-07-29T01:51:56.921Z,97797.63
2022-07-29T01:55:04.588Z,97804.81
2022-07-29T01:58:09.659Z,97803.81
2022-07-29T02:01:15.975Z,97798.03
2022-07-29T02:04:28.988Z,97782.69
2022-07-29T02:07:35.385Z,97782.53
2022-07-29T02:10:41.221Z,97777.22
2022-07-29T02:13:46.408Z,97770.28
2022-07-29T02:16:54.552Z,97761.22
2022-07-29T02:20:02.069Z,97779.94
2022-07-29T02:23:06.208Z,97775.78
2022-07-29T02:26:11.206Z,97754.56
2022-07-29T02:29:15.836Z,97778.38
2022-07-29T02:32:33.417Z,97773.78
2022-07-29T02:35:37.343Z,97772.81
2022-07-29T02:38:53.136Z,97778.63
2022-07-29T02:42:01.274Z,97779.19
2022-07-29T02:45:04.978Z,97784.72
2022-07-29T02:48:15.219Z,97788.28
2022-07-29T02:51:43.722Z,97786.44
2022-07-29T02:54:53.755Z,97782.09
2022-07-29T02:58:02.765Z,97779.09
2022-07-29T03:01:15.719Z,97788.28
2022-07-29T03:04:27.101Z,97772.16
2022-07-29T03:07:30.808Z,97786.97
2022-07-29T03:10:34.817Z,97792.34
2022-07-29T03:13:39.224Z,97793.56
2022-07-29T03:16:43.586Z,97797.22
2022-07-29T03:19:48.723Z,97789.06
2022-07-29T03:22:52.888Z,97788.31
2022-07-29T03:25:57.098Z,97787.25
2022-07-29T03:29:00.502Z,97795.25
2022-07-29T03:34:45.700Z,97791.84
2022-07-29T03:37:51.659Z,97792.88
2022-07-29T03:40:58.675Z,97793.06
2022-07-29T03:44:02.742Z,97788.06
2022-07-29T03:47:08.596Z,97795.16
2022-07-29T03:50:16.775Z,97771.78
2022-07-29T03:53:20.380Z,97795.03
2022-07-29T03:56:25.449Z,97790.13
2022-07-29T03:59:29.723Z,97798.03
2022-07-29T04:02:34.472Z,97795.38
2022-07-29T04:05:39.296Z,97795.66
2022-07-29T04:08:42.593Z,97798.72
2022-07-29T04:12:02.891Z,97791.44
2022-07-29T04:15:07.948Z,97787.53
2022-07-29T04:18:11.164Z,97804.06
2022-07-29T04:21:18.524Z,97810.47
2022-07-29T04:24:22.071Z,97812.53
2022-07-29T04:27:25.664Z,97823.47
2022-07-29T04:30:29.466Z,97821.28
2022-07-29T04:33:32.741Z,97821.53
2022-07-29T04:36:37.384Z,97828.78
2022-07-29T04:39:40.721Z,97826.34
2022-07-29T04:42:46.562Z,97823.69
2022-07-29T04:45:50.749Z,97834.72
2022-07-29T04:48:54.064Z,97821.72
2022-07-29T04:51:59.010Z,97819.38
2022-07-29T04:55:02.300Z,97833.91
2022-07-29T04:58:05.676Z,97812.91
2022-07-29T05:01:09.516Z,97820.06
2022-07-29T05:04:13.089Z,97847.28
2022-07-29T05:07:17.966Z,97845.56
2022-07-29T05:10:21.305Z,97846.81
2022-07-29T05:13:24.557Z,97844.50
2022-07-29T05:16:27.965Z,97847.25
2022-07-29T05:19:31.271Z,97817.69
2022-07-29T05:22:35.967Z,97837.28
2022-07-29T05:25:43.551Z,97834.78
2022-07-29T05:28:48.052Z,97841.16
2022-07-29T05:31:52.820Z,97835.34
2022-07-29T05:34:56.329Z,97842.81
2022-07-29T05:38:01.043Z,97843.31
2022-07-29T05:41:04.955Z,97849.44
2022-07-29T05:44:08.450Z,97826.19
2022-07-29T05:47:13.571Z,97840.28
2022-07-29T05:50:44.228Z,97835.00
2022-07-29T05:53:52.785Z,97848.97
2022-07-29T05:56:56.046Z,97843.47
2022-07-29T05:59:59.684Z,97818.94
2022-07-29T06:03:05.593Z,97837.94
2022-07-29T06:06:09.700Z,97834.47
2022-07-29T06:09:14.843Z,97841.88
2022-07-29T06:12:18.357Z,97848.03
2022-07-29T06:15:21.645Z,97819.63
2022-07-29T06:18:25.732Z,97836.06
2022-07-29T06:21:28.927Z,97840.75
2022-07-29T06:24:33.607Z,97849.06
2022-07-29T06:27:36.830Z,97823.16
2022-07-29T06:30:40.287Z,97837.56
2022-07-29T06:33:43.897Z,97842.56
2022-07-29T06:36:47.200Z,97836.09
2022-07-29T06:40:13.127Z,97840.25
2022-07-29T06:43:16.609Z,97838.88
2022-07-29T06:46:21.887Z,97849.34
2022-07-29T06:49:27.073Z,97852.41
2022-07-29T06:52:30.366Z,97845.09
2022-07-29T06:55:37.918Z,97855.09
2022-07-29T06:58:41.166Z,97853.34
2022-07-29T07:01:47.481Z,97846.59
2022-07-29T07:04:50.936Z,97847.09
2022-07-29T07:07:54.127Z,97848.91
2022-07-29T07:11:00.092Z,97830.72
2022-07-29T07:14:04.270Z,97842.47
2022-07-29T07:17:08.085Z,97849.56
2022-07-29T07:20:12.346Z,97841.13
2022-07-29T07:23:16.396Z,97845.09
2022-07-29T07:26:21.139Z,97826.78
2022-07-29T07:29:24.361Z,97820.72
2022-07-29T07:32:27.569Z,97835.97
2022-07-29T07:35:31.113Z,97818.28
2022-07-29T07:38:34.404Z,97835.69
2022-07-29T07:41:39.064Z,97823.78
2022-07-29T07:45:03.673Z,97830.78
2022-07-29T07:48:06.766Z,97838.59
2022-07-29T07:51:10.232Z,97826.22
2022-07-29T07:54:13.790Z,97814.44
2022-07-29T07:57:18.641Z,97831.31
2022-07-29T08:00:23.737Z,97784.34
2022-07-29T08:03:27.347Z,97827.16
2022-07-29T08:06:30.584Z,97834.22
2022-07-29T08:09:35.291Z,97818.94
2022-07-29T08:12:39.922Z,97814.56
2022-07-29T08:15:44.152Z,97819.56
2022-07-29T08:18:48.103Z,97783.03
2022-07-29T08:21:53.692Z,97826.56
2022-07-29T08:24:57.232Z,97825.72
2022-07-29T08:28:01.831Z,97823.88
2022-07-29T08:31:05.167Z,97819.69
2022-07-29T08:34:08.741Z,97829.53
2022-07-29T08:37:12.337Z,97825.50
2022-07-29T08:40:16.208Z,97815.38
2022-07-29T08:43:22.926Z,97820.91
2022-07-29T08:46:26.934Z,97812.56
2022-07-29T08:49:30.651Z,97806.50
2022-07-29T08:52:37.876Z,97814.88
2022-07-29T08:55:42.579Z,97817.53
2022-07-29T08:58:52.030Z,97809.91
2022-07-29T09:01:56.771Z,97806.38
2022-07-29T09:05:02.523Z,97810.41
2022-07-29T09:08:06.818Z,97816.47
2022-07-29T09:11:10.961Z,97812.59
2022-07-29T09:14:16.186Z,97787.00
2022-07-29T09:17:20.899Z,97811.97
2022-07-29T09:20:24.976Z,97811.22
2022-07-29T09:23:28.242Z,97811.16
2022-07-29T09:26:32.229Z,97803.63
2022-07-29T09:29:37.957Z,97797.56
2022-07-29T09:34:45.704Z,97804.44
2022-07-29T09:37:53.047Z,97793.88
2022-07-29T09:41:04.573Z,97798.66
2022-07-29T09:44:09.628Z,97788.84
2022-07-29T09:47:12.936Z,97776.91
2022-07-29T09:50:20.736Z,97763.16
2022-07-29T09:53:34.438Z,97789.56
2022-07-29T09:56:41.517Z,97777.84
2022-07-29T09:59:58.063Z,97793.69
2022-07-29T10:03:03.762Z,97770.75
2022-07-29T10:06:10.435Z,97796.59
2022-07-29T10:09:13.742Z,97784.13
2022-07-29T10:12:16.960Z,97786.53
2022-07-29T10:15:20.678Z,97767.25
2022-07-29T10:18:24.108Z,97783.91
2022-07-29T10:21:36.613Z,97780.94
2022-07-29T10:24:41.566Z,97774.94
2022-07-29T10:27:45.066Z,97770.72
2022-07-29T10:30:51.488Z,97774.75
2022-07-29T10:34:07.081Z,97778.09
2022-07-29T10:37:26.307Z,97717.53
2022-07-29T10:41:08.692Z,97768.16
2022-07-29T10:44:19.532Z,97757.78
2022-07-29T10:47:28.033Z,97749.94
2022-07-29T10:50:54.496Z,97751.38
2022-07-29T10:54:00.790Z,97754.94
2022-07-29T10:57:16.601Z,97752.00
2022-07-29T11:00:34.624Z,97741.56
2022-07-29T11:03:53.727Z,97748.22
2022-07-29T11:07:09.775Z,97725.00
2022-07-29T11:10:30.970Z,97737.84
2022-07-29T11:17:14.055Z,97732.94
2022-07-29T11:20:38.273Z,97735.53
2022-07-29T11:23:43.350Z,97728.97
2022-07-29T11:31:00.238Z,97737.03
2022-07-29T11:34:28.243Z,97735.84
2022-07-29T11:37:32.922Z,97733.53
2022-07-29T11:41:22.473Z,97724.16
2022-07-29T11:44:57.232Z,97718.22
2022-07-29T11:48:31.491Z,97706.84
2022-07-29T11:51:33.115Z,97712.66
2022-07-29T11:55:00.551Z,97697.72
2022-07-29T11:58:04.676Z,97710.25
2022-07-29T12:01:09.395Z,97710.25
2022-07-29T12:04:12.708Z,97693.47
2022-07-29T12:07:17.055Z,97705.59
2022-07-29T12:10:30.434Z,97697.38
2022-07-29T12:13:41.332Z,97672.41
2022-07-29T12:16:45.929Z,97680.25
2022-07-29T12:19:49.301Z,97649.53
2022-07-29T12:22:55.639Z,97661.72
2022-07-29T12:26:00.496Z,97672.00
2022-07-29T12:29:04.268Z,97676.75
2022-07-29T12:32:19.817Z,97671.44
2022-07-29T12:35:23.598Z,97684.84
2022-07-29T12:38:27.251Z,97679.28
2022-07-29T12:41:33.988Z,97677.84
2022-07-29T12:44:48.388Z,97673.75
2022-07-29T12:47:56.199Z,97670.84
2022-07-29T12:51:02.316Z,97681.66
2022-07-29T12:54:08.898Z,97669.38
2022-07-29T12:57:20.275Z,97669.09
2022-07-29T13:00:25.878Z,97663.56
2022-07-29T13:03:43.428Z,97654.94
2022-07-29T13:07:04.860Z,97653.38
2022-07-29T13:10:16.795Z,97650.78
2022-07-29T13:13:21.503Z,97652.97
2022-07-29T13:16:24.728Z,97639.94
2022-07-29T13:19:38.454Z,97669.53
2022-07-29T13:22:43.261Z,97664.19
2022-07-29T13:25:46.907Z,97620.56
2022-07-29T13:28:50.712Z,97674.56
2022-07-29T13:31:54.025Z,97690.75
2022-07-29T13:34:59.481Z,97678.63
2022-07-29T13:38:02.676Z,97675.50
2022-07-29T13:41:06.004Z,97667.91
2022-07-29T13:44:09.529Z,97672.28
2022-07-29T13:47:12.977Z,97678.59
2022-07-29T13:50:17.777Z,97677.84
2022-07-29T13:53:26.816Z,97680.56
2022-07-29T13:56:30.592Z,97692.06
2022-07-29T13:59:34.475Z,97699.25
2022-07-29T14:02:39.316Z,97662.28
2022-07-29T14:05:43.969Z,97689.81
2022-07-29T14:08:47.332Z,97689.31
2022-07-29T14:11:52.288Z,97675.28
2022-07-29T14:14:55.921Z,97671.34
2022-07-29T14:17:59.325Z,97677.41
2022-07-29T14:21:04.108Z,97689.50
2022-07-29T14:24:17.845Z,97694.97
2022-07-29T14:27:37.368Z,97692.19
2022-07-29T14:30:41.905Z,97696.81
2022-07-29T14:33:46.266Z,97698.19
2022-07-29T14:36:56.385Z,97702.41
2022-07-29T14:40:02.698Z,97702.63
2022-07-29T14:43:06.390Z,97713.81
2022-07-29T14:46:10.258Z,97712.75
2022-07-29T14:49:14.081Z,97717.66
2022-07-29T14:52:18.868Z,97728.91
2022-07-29T14:55:22.430Z,97725.69
2022-07-29T14:58:25.850Z,97737.06
2022-07-29T15:01:30.127Z,97684.66
2022-07-29T15:04:33.477Z,97756.03
2022-07-29T15:07:38.525Z,97770.28
2022-07-29T15:10:41.806Z,97772.00
2022-07-29T15:13:45.118Z,97767.31
2022-07-29T15:16:48.677Z,97766.69
2022-07-29T15:19:52.071Z,97762.44
2022-07-29T15:22:57.456Z,97761.38
2022-07-29T15:26:00.802Z,97766.22
2022-07-29T15:29:04.154Z,97763.06
2022-07-29T15:34:47.130Z,97760.28
2022-07-29T15:37:50.339Z,97765.72
2022-07-29T15:40:53.648Z,97779.28
2022-07-29T15:43:56.930Z,97778.34
2022-07-29T15:47:07.212Z,97750.91
2022-07-29T15:50:15.803Z,97782.03
2022-07-29T15:53:19.079Z,97795.38
2022-07-29T15:56:22.866Z,97802.78
2022-07-29T15:59:26.427Z,97832.22
2022-07-29T16:02:29.631Z,97833.97
2022-07-29T16:05:34.339Z,97834.88
2022-07-29T16:08:44.950Z,97842.50
2022-07-29T16:11:50.902Z,97835.13
2022-07-29T16:14:54.550Z,97836.66
2022-07-29T16:17:57.798Z,97841.91
2022-07-29T16:21:02.384Z,97845.06
2022-07-29T16:24:07.275Z,97852.75
2022-07-29T16:27:10.627Z,97864.69
2022-07-29T16:30:14.550Z,97868.09
2022-07-29T16:33:17.841Z,97880.78
2022-07-29T16:36:23.133Z,97878.97
2022-07-29T16:39:26.362Z,97881.19
2022-07-29T16:42:46.011Z,97898.03
2022-07-29T16:45:50.080Z,97869.25
2022-07-29T16:48:53.453Z,97904.22
2022-07-29T16:51:58.922Z,97915.28
2022-07-29T16:55:03.006Z,97924.31
2022-07-29T16:58:06.373Z,97918.19
2022-07-29T17:01:09.716Z,97922.91
2022-07-29T17:04:14.964Z,97922.59
2022-07-29T17:07:19.781Z,97932.38
2022-07-29T17:10:23.480Z,97939.16
2022-07-29T17:13:26.813Z,97934.13
2022-07-29T17:16:32.905Z,97941.09
2022-07-29T17:19:37.047Z,97946.69
2022-07-29T17:22:43.026Z,97953.06
2022-07-29T17:25:46.266Z,97768.41
2022-07-29T17:28:49.583Z,97965.28
2022-07-29T17:31:53.179Z,97963.69
2022-07-29T17:34:56.822Z,97964.81
2022-07-29T17:38:01.432Z,97952.38
2022-07-29T17:41:09.382Z,97962.66
2022-07-29T17:44:14.643Z,97975.91
2022-07-29T17:47:18.009Z,97964.47
2022-07-29T17:50:21.343Z,97964.78
2022-07-29T17:53:25.986Z,97910.03
2022-07-29T17:56:30.320Z,97963.69
2022-07-29T17:59:33.648Z,97968.69
2022-07-29T18:02:37.560Z,97970.38
2022-07-29T18:05:41.521Z,97972.41
2022-07-29T18:08:47.546Z,97972.09
2022-07-29T18:11:50.932Z,97974.97
2022-07-29T18:14:54.496Z,97983.59
2022-07-29T18:17:58.148Z,97978.56
2022-07-29T18:21:01.659Z,97971.13
2022-07-29T18:24:07.178Z,97967.91
2022-07-29T18:27:10.678Z,97977.22
2022-07-29T18:30:14.982Z,97952.28
2022-07-29T18:33:21.608Z,97962.56
2022-07-29T18:36:25.452Z,97960.34
2022-07-29T18:39:30.203Z,97933.28
2022-07-29T18:42:34.015Z,97978.47
2022-07-29T18:45:37.607Z,97978.00
2022-07-29T18:48:43.241Z,97981.50
2022-07-29T18:51:46.713Z,97994.31
2022-07-29T18:54:51.478Z,97977.91
2022-07-29T18:57:57.210Z,97980.78
2022-07-29T19:01:01.867Z,97981.38
2022-07-29T19:04:06.176Z,97978.53
2022-07-29T19:07:09.513Z,97980.19
2022-07-29T19:10:14.531Z,97975.69
2022-07-29T19:13:18.063Z,97990.78
2022-07-29T19:16:21.391Z,98005.09
2022-07-29T19:19:25.378Z,98019.69
2022-07-29T19:22:28.612Z,98014.22
2022-07-29T19:25:35.692Z,98028.22
2022-07-29T19:28:39.329Z,98017.19
2022-07-29T19:31:43.065Z,98042.44
2022-07-29T19:35:06.376Z,98039.94
2022-07-29T19:38:09.568Z,98052.56
2022-07-29T19:41:15.792Z,98060.50
2022-07-29T19:44:19.245Z,98063.00
2022-07-29T19:47:22.737Z,98075.41
2022-07-29T19:50:26.646Z,98058.72
2022-07-29T19:53:30.046Z,98086.84
2022-07-29T19:56:34.658Z,98088.03
2022-07-29T19:59:42.126Z,98099.63
2022-07-29T20:02:48.110Z,98096.00
2022-07-29T20:05:52.805Z,98096.91
2022-07-29T20:08:58.773Z,98096.88
2022-07-29T20:12:04.698Z,98086.72
2022-07-29T20:15:10.192Z,98081.69
2022-07-29T20:18:20.086Z,98065.38
2022-07-29T20:21:23.289Z,98082.38
2022-07-29T20:24:26.629Z,98082.25
2022-07-29T20:27:31.753Z,98082.16
2022-07-29T20:30:35.048Z,98079.47
2022-07-29T20:33:41.939Z,98058.59
2022-07-29T20:36:46.023Z,98093.91
2022-07-29T20:39:49.208Z,98088.47
2022-07-29T20:42:53.893Z,98085.88
2022-07-29T20:45:57.527Z,98090.81
2022-07-29T20:49:00.835Z,98095.09
2022-07-29T20:52:04.256Z,98062.41
2022-07-29T20:55:31.927Z,98093.28
2022-07-29T20:58:36.803Z,98087.56
2022-07-29T21:01:39.993Z,98079.28
2022-07-29T21:04:43.711Z,98089.78
2022-07-29T21:07:49.013Z,98093.91
2022-07-29T21:10:52.762Z,98096.41
2022-07-29T21:13:58.299Z,98059.28
2022-07-29T21:17:02.057Z,98101.19
2022-07-29T21:20:08.724Z,98097.72
2022-07-29T21:23:12.224Z,98089.31
2022-07-29T21:26:16.124Z,98083.41
2022-07-29T21:29:19.761Z,98070.63
2022-07-29T21:34:45.438Z,98084.97
2022-07-29T21:37:48.846Z,98081.78
2022-07-29T21:40:53.136Z,98086.69
2022-07-29T21:43:58.201Z,98080.44
2022-07-29T21:47:02.974Z,98063.19
2022-07-29T21:50:09.055Z,98062.38
2022-07-29T21:53:15.003Z,98051.75
2022-07-29T21:56:19.264Z,98051.28
2022-07-29T21:59:23.140Z,98051.41
2022-07-29T22:02:26.529Z,98060.38
2022-07-29T22:05:31.444Z,98035.69
2022-07-29T22:08:34.718Z,98058.72
2022-07-29T22:11:37.970Z,98055.81
2022-07-29T22:14:46.948Z,98059.72
2022-07-29T22:17:50.849Z,98051.03
2022-07-29T22:20:55.492Z,98052.78
2022-07-29T22:23:58.867Z,98050.09
2022-07-29T22:27:02.446Z,98049.66
2022-07-29T22:30:07.072Z,98051.03
2022-07-29T22:33:17.514Z,98048.78
2022-07-29T22:36:22.834Z,98055.31
2022-07-29T22:39:26.130Z,98062.63
2022-07-29T22:42:29.394Z,98053.53
2022-07-29T22:45:32.824Z,98060.56
2022-07-29T22:48:39.004Z,98064.13
2022-07-29T22:51:43.715Z,98062.88
2022-07-29T22:54:47.058Z,98059.41
2022-07-29T22:57:50.394Z,98056.19
2022-07-29T23:00:53.898Z,98062.63
2022-07-29T23:03:57.534Z,98057.00
2022-07-29T23:07:02.853Z,98048.56
2022-07-29T23:10:07.200Z,98041.19
2022-07-29T23:13:12.737Z,98030.38
2022-07-29T23:16:15.965Z,98036.31
2022-07-29T23:19:30.167Z,98029.03
2022-07-29T23:22:34.920Z,98032.03
2022-07-29T23:25:38.388Z,98029.53
2022-07-29T23:28:43.074Z,98021.16
2022-07-29T23:31:48.000Z,98019.03
2022-07-29T23:34:53.956Z,98030.94
2022-07-29T23:37:58.550Z,98028.34
2022-07-29T23:41:02.510Z,98014.00
2022-07-29T23:44:06.190Z,98016.63
2022-07-29T23:47:09.660Z,98034.97
2022-07-29T23:50:13.820Z,98031.16
2022-07-29T23:53:18.503Z,98037.03
2022-07-29T23:56:21.950Z,98040.22
2022-07-29T23:59:25.713Z,98036.41
